createdAt,value
2019-02-06T00:00:37.077Z,24.83
2019-02-06T00:03:07.214Z,22.73
2019-02-06T00:05:36.750Z,24.50
2019-02-06T00:08:06.153Z,24.67
2019-02-06T00:10:35.562Z,25.20
2019-02-06T00:13:05.708Z,25.43
2019-02-06T00:15:35.114Z,25.20
2019-02-06T00:18:04.730Z,26.10
2019-02-06T00:20:34.464Z,26.33
2019-02-06T00:23:03.952Z,27.20
2019-02-06T00:25:33.483Z,26.43
2019-02-06T00:28:02.899Z,27.07
2019-02-06T00:30:32.555Z,26.00
2019-02-06T00:33:02.481Z,27.70
2019-02-06T00:35:31.933Z,27.00
2019-02-06T00:38:01.725Z,29.10
2019-02-06T00:40:31.231Z,28.10
2019-02-06T00:43:00.831Z,28.53
2019-02-06T00:45:30.261Z,28.80
2019-02-06T00:48:00.013Z,29.27
2019-02-06T00:50:29.512Z,29.47
2019-02-06T00:52:59.079Z,30.10
2019-02-06T00:55:28.864Z,29.93
2019-02-06T00:57:58.304Z,29.87
2019-02-06T01:00:27.755Z,29.13
2019-02-06T01:02:57.512Z,30.47
2019-02-06T01:05:37.439Z,30.37
2019-02-06T01:07:58.101Z,30.47
2019-02-06T01:10:27.512Z,29.97
2019-02-06T01:12:56.987Z,31.30
2019-02-06T01:15:26.421Z,33.57
2019-02-06T01:17:56.370Z,32.80
2019-02-06T01:20:26.098Z,32.20
2019-02-06T01:22:55.560Z,35.37
2019-02-06T01:25:25.028Z,32.90
2019-02-06T01:27:54.512Z,35.47
2019-02-06T01:30:25.657Z,34.27
2019-02-06T01:32:55.289Z,34.40
2019-02-06T01:35:24.747Z,36.00
2019-02-06T01:37:54.211Z,36.73
2019-02-06T01:40:23.683Z,35.10
2019-02-06T01:42:53.143Z,35.40
2019-02-06T01:45:22.571Z,35.40
2019-02-06T01:47:52.021Z,34.67
2019-02-06T01:50:21.753Z,36.00
2019-02-06T01:52:51.242Z,37.07
2019-02-06T01:55:20.721Z,34.77
2019-02-06T01:57:50.218Z,34.63
2019-02-06T02:00:21.635Z,35.53
2019-02-06T02:02:51.189Z,34.40
2019-02-06T02:05:21.395Z,35.00
2019-02-06T02:07:52.049Z,35.60
2019-02-06T02:10:22.110Z,34.87
2019-02-06T02:12:51.530Z,35.30
2019-02-06T02:15:21.227Z,35.07
2019-02-06T02:17:50.635Z,35.43
2019-02-06T02:20:21.755Z,36.33
2019-02-06T02:22:51.201Z,36.23
2019-02-06T02:25:20.973Z,36.07
2019-02-06T02:27:50.740Z,36.33
2019-02-06T02:30:26.367Z,35.43
2019-02-06T02:32:55.845Z,35.13
2019-02-06T02:35:25.759Z,36.47
2019-02-06T02:37:55.221Z,35.20
2019-02-06T02:40:24.993Z,36.20
2019-02-06T02:42:54.847Z,36.17
2019-02-06T02:45:24.281Z,36.90
2019-02-06T02:47:54.141Z,35.17
2019-02-06T02:50:23.648Z,36.87
2019-02-06T02:52:53.313Z,34.43
2019-02-06T02:55:22.758Z,35.57
2019-02-06T02:57:52.203Z,34.70
2019-02-06T03:00:25.540Z,34.73
2019-02-06T03:03:05.163Z,34.40
2019-02-06T03:05:36.238Z,33.10
2019-02-06T03:08:05.930Z,30.60
2019-02-06T03:10:35.383Z,31.63
2019-02-06T03:13:05.182Z,32.13
2019-02-06T03:15:34.601Z,30.27
2019-02-06T03:18:04.177Z,29.47
2019-02-06T03:20:33.565Z,27.13
2019-02-06T03:23:03.072Z,28.63
2019-02-06T03:25:32.532Z,29.53
2019-02-06T03:28:02.364Z,29.43
2019-02-06T03:30:32.166Z,27.30
2019-02-06T03:33:01.790Z,28.67
2019-02-06T03:35:31.275Z,27.50
2019-02-06T03:38:00.701Z,28.27
2019-02-06T03:40:30.173Z,27.00
2019-02-06T03:42:59.907Z,26.97
2019-02-06T03:45:29.874Z,26.60
2019-02-06T03:48:00.066Z,26.03
2019-02-06T03:50:29.500Z,26.03
2019-02-06T03:52:58.948Z,25.67
2019-02-06T03:55:28.744Z,25.77
2019-02-06T03:57:58.688Z,25.27
2019-02-06T04:00:28.234Z,25.67
2019-02-06T04:02:57.696Z,24.13
2019-02-06T04:05:27.129Z,24.67
2019-02-06T04:07:56.574Z,23.93
2019-02-06T04:10:25.995Z,23.67
2019-02-06T04:12:56.073Z,23.30
2019-02-06T04:15:25.817Z,22.97
2019-02-06T04:17:55.250Z,23.93
2019-02-06T04:20:24.685Z,23.97
2019-02-06T04:22:54.857Z,23.97
2019-02-06T04:25:24.637Z,22.63
2019-02-06T04:27:54.576Z,22.70
2019-02-06T04:30:24.956Z,22.23
2019-02-06T04:32:54.484Z,22.33
2019-02-06T04:35:23.978Z,22.23
2019-02-06T04:37:53.378Z,22.47
2019-02-06T04:40:22.824Z,21.53
2019-02-06T04:42:52.561Z,20.93
2019-02-06T04:45:21.985Z,20.17
2019-02-06T04:48:10.545Z,19.87
2019-02-06T04:50:39.947Z,20.60
2019-02-06T04:53:09.935Z,19.70
2019-02-06T04:55:39.395Z,18.97
2019-02-06T04:58:09.531Z,17.90
2019-02-06T05:00:38.955Z,18.20
2019-02-06T05:03:08.430Z,19.37
2019-02-06T05:05:38.260Z,19.43
2019-02-06T05:08:09.679Z,19.00
2019-02-06T05:10:39.127Z,18.33
2019-02-06T05:13:08.580Z,17.13
2019-02-06T05:15:37.962Z,16.60
2019-02-06T05:18:07.901Z,17.20
2019-02-06T05:20:38.982Z,16.20
2019-02-06T05:23:09.772Z,16.37
2019-02-06T05:25:39.197Z,15.87
2019-02-06T05:28:09.000Z,15.83
2019-02-06T05:30:38.814Z,14.97
2019-02-06T05:33:08.362Z,15.70
2019-02-06T05:35:37.778Z,16.13
2019-02-06T05:38:08.049Z,15.33
2019-02-06T05:40:37.481Z,15.97
2019-02-06T05:43:07.057Z,15.27
2019-02-06T05:45:36.625Z,14.43
2019-02-06T05:48:06.362Z,14.77
2019-02-06T05:50:35.829Z,14.00
2019-02-06T05:53:05.823Z,15.13
2019-02-06T05:55:35.279Z,13.60
2019-02-06T05:58:04.872Z,13.50
2019-02-06T06:00:38.578Z,13.27
2019-02-06T06:03:08.060Z,14.73
2019-02-06T06:05:37.538Z,13.40
2019-02-06T06:08:07.615Z,13.13
2019-02-06T06:10:37.090Z,13.23
2019-02-06T06:13:06.564Z,13.13
2019-02-06T06:15:36.033Z,13.37
2019-02-06T06:18:05.879Z,13.30
2019-02-06T06:20:35.409Z,13.50
2019-02-06T06:23:04.883Z,13.23
2019-02-06T06:25:34.399Z,13.27
2019-02-06T06:28:03.850Z,13.13
2019-02-06T06:30:33.288Z,12.70
2019-02-06T06:33:02.770Z,12.43
2019-02-06T06:35:32.281Z,12.87
2019-02-06T06:38:01.772Z,13.43
2019-02-06T06:40:32.298Z,12.13
2019-02-06T06:43:01.754Z,12.93
2019-02-06T06:45:31.389Z,12.37
2019-02-06T06:48:19.881Z,13.03
2019-02-06T06:50:49.675Z,12.87
2019-02-06T06:53:19.237Z,13.03
2019-02-06T06:55:48.685Z,12.60
2019-02-06T06:58:18.128Z,11.97
2019-02-06T07:00:47.625Z,13.00
2019-02-06T07:03:17.041Z,11.60
2019-02-06T07:05:47.002Z,12.00
2019-02-06T07:08:16.836Z,10.80
2019-02-06T07:10:46.230Z,11.47
2019-02-06T07:13:15.686Z,11.70
2019-02-06T07:15:45.190Z,10.63
2019-02-06T07:18:14.582Z,10.73
2019-02-06T07:20:44.242Z,10.07
2019-02-06T07:23:13.682Z,10.40
2019-02-06T07:25:43.230Z,9.90
2019-02-06T07:28:12.690Z,10.13
2019-02-06T07:30:42.137Z,11.27
2019-02-06T07:33:11.630Z,10.43
2019-02-06T07:35:41.451Z,9.93
2019-02-06T07:38:22.305Z,10.47
2019-02-06T07:40:41.981Z,10.70
2019-02-06T07:43:11.428Z,9.90
2019-02-06T07:45:40.858Z,10.03
2019-02-06T07:48:10.294Z,10.40
2019-02-06T07:50:40.158Z,9.83
2019-02-06T07:53:09.648Z,9.83
2019-02-06T07:55:39.264Z,9.57
2019-02-06T07:58:08.784Z,9.60
2019-02-06T08:00:38.282Z,9.47
2019-02-06T08:03:08.046Z,9.07
2019-02-06T08:05:38.373Z,8.80
2019-02-06T08:08:07.897Z,9.17
2019-02-06T08:10:37.608Z,9.57
2019-02-06T08:13:26.480Z,9.33
2019-02-06T08:15:55.983Z,8.93
2019-02-06T08:18:25.434Z,8.77
2019-02-06T08:20:54.900Z,8.53
2019-02-06T08:23:43.419Z,8.70
2019-02-06T08:26:12.989Z,9.23
2019-02-06T08:28:42.611Z,9.33
2019-02-06T08:31:12.159Z,8.00
2019-02-06T08:33:42.067Z,8.10
2019-02-06T08:36:11.531Z,8.20
2019-02-06T08:38:47.946Z,8.40
2019-02-06T08:41:12.160Z,8.77
2019-02-06T08:43:41.558Z,8.03
2019-02-06T08:46:11.532Z,8.50
2019-02-06T08:48:41.049Z,8.23
2019-02-06T08:51:10.512Z,9.13
2019-02-06T08:53:39.969Z,8.73
2019-02-06T08:56:09.449Z,8.43
2019-02-06T08:58:38.875Z,8.30
2019-02-06T09:01:08.726Z,8.87
2019-02-06T09:03:38.646Z,8.63
2019-02-06T09:06:08.300Z,9.40
2019-02-06T09:08:37.773Z,8.77
2019-02-06T09:11:07.604Z,8.63
2019-02-06T09:13:37.048Z,7.93
2019-02-06T09:16:06.555Z,8.40
2019-02-06T09:18:35.948Z,8.77
2019-02-06T09:21:05.456Z,8.40
2019-02-06T09:23:34.894Z,9.37
2019-02-06T09:26:05.230Z,8.63
2019-02-06T09:28:41.196Z,7.73
2019-02-06T09:31:10.732Z,8.53
2019-02-06T09:33:40.636Z,8.53
2019-02-06T09:36:10.360Z,8.30
2019-02-06T09:38:39.824Z,8.73
2019-02-06T09:41:10.004Z,7.70
2019-02-06T09:43:39.428Z,8.60
2019-02-06T09:46:08.891Z,8.10
2019-02-06T09:48:38.443Z,8.87
2019-02-06T09:51:07.894Z,7.97
2019-02-06T09:53:37.415Z,8.57
2019-02-06T09:56:07.180Z,8.07
2019-02-06T09:58:36.609Z,8.07
2019-02-06T10:01:06.048Z,8.10
2019-02-06T10:03:35.694Z,7.73
2019-02-06T10:06:05.384Z,7.97
2019-02-06T10:08:35.326Z,8.00
2019-02-06T10:11:05.135Z,7.70
2019-02-06T10:13:34.633Z,8.43
2019-02-06T10:16:04.386Z,7.73
2019-02-06T10:18:33.922Z,8.33
2019-02-06T10:21:03.796Z,8.47
2019-02-06T10:23:33.240Z,8.37
2019-02-06T10:26:03.186Z,8.90
2019-02-06T10:28:32.666Z,8.67
2019-02-06T10:31:02.114Z,9.20
2019-02-06T10:33:31.570Z,8.77
2019-02-06T10:36:00.980Z,8.87
2019-02-06T10:38:30.410Z,8.53
2019-02-06T10:40:59.825Z,8.83
2019-02-06T10:43:32.245Z,9.70
2019-02-06T10:46:00.846Z,9.50
2019-02-06T10:48:30.301Z,10.40
2019-02-06T10:50:59.719Z,9.70
2019-02-06T10:53:29.142Z,9.33
2019-02-06T10:55:59.377Z,9.67
2019-02-06T10:58:29.002Z,9.73
2019-02-06T11:01:03.042Z,10.20
2019-02-06T11:03:32.500Z,9.67
2019-02-06T11:06:02.276Z,9.83
2019-02-06T11:08:31.822Z,9.17
2019-02-06T11:11:01.578Z,9.37
2019-02-06T11:13:31.014Z,9.53
2019-02-06T11:16:00.477Z,9.67
2019-02-06T11:18:30.044Z,9.70
2019-02-06T11:20:59.485Z,9.27
2019-02-06T11:23:28.878Z,9.97
2019-02-06T11:25:58.735Z,9.87
2019-02-06T11:28:28.268Z,10.13
2019-02-06T11:30:57.728Z,10.00
2019-02-06T11:33:27.178Z,10.30
2019-02-06T11:35:56.977Z,10.03
2019-02-06T11:38:28.013Z,10.67
2019-02-06T11:40:57.861Z,10.23
2019-02-06T11:43:27.482Z,10.37
2019-02-06T11:45:56.920Z,10.47
2019-02-06T11:48:26.331Z,10.63
2019-02-06T11:50:56.672Z,11.17
2019-02-06T11:53:27.154Z,10.73
2019-02-06T11:55:57.516Z,11.80
2019-02-06T11:58:27.657Z,11.23
2019-02-06T12:01:14.673Z,11.63
2019-02-06T12:03:44.128Z,11.60
2019-02-06T12:06:13.953Z,12.20
2019-02-06T12:08:43.407Z,11.33
2019-02-06T12:11:12.844Z,11.50
2019-02-06T12:13:42.241Z,12.33
2019-02-06T12:16:11.843Z,12.40
2019-02-06T12:18:41.332Z,11.50
2019-02-06T12:21:11.294Z,11.70
2019-02-06T12:23:41.054Z,11.90
2019-02-06T12:26:10.518Z,12.07
2019-02-06T12:28:40.036Z,11.40
2019-02-06T12:31:09.412Z,11.77
2019-02-06T12:33:38.884Z,12.47
2019-02-06T12:36:08.919Z,11.17
2019-02-06T12:38:38.370Z,12.03
2019-02-06T12:41:07.883Z,12.20
2019-02-06T12:43:37.368Z,12.13
2019-02-06T12:46:07.386Z,12.40
2019-02-06T12:48:36.830Z,12.78
2019-02-06T12:51:06.650Z,13.10
2019-02-06T12:53:36.150Z,12.53
2019-02-06T12:56:05.713Z,11.67
2019-02-06T12:58:35.315Z,12.57
2019-02-06T13:01:05.594Z,12.57
2019-02-06T13:03:35.064Z,12.83
2019-02-06T13:06:04.687Z,13.27
2019-02-06T13:08:34.158Z,13.17
2019-02-06T13:11:03.628Z,13.70
2019-02-06T13:13:33.130Z,13.62
2019-02-06T13:16:02.585Z,13.60
2019-02-06T13:18:31.994Z,13.40
2019-02-06T13:21:01.404Z,12.70
2019-02-06T13:23:30.955Z,13.57
2019-02-06T13:26:00.434Z,14.33
2019-02-06T13:28:29.970Z,13.60
2019-02-06T13:30:59.453Z,14.80
2019-02-06T13:33:28.954Z,13.87
2019-02-06T13:35:58.478Z,13.63
2019-02-06T13:38:27.899Z,13.47
2019-02-06T13:40:57.904Z,14.13
2019-02-06T13:43:27.353Z,13.70
2019-02-06T13:45:57.358Z,14.87
2019-02-06T13:48:26.781Z,14.57
2019-02-06T13:50:56.293Z,15.20
2019-02-06T13:53:25.789Z,15.23
2019-02-06T13:55:55.401Z,14.23
2019-02-06T13:58:24.843Z,14.17
2019-02-06T14:00:54.715Z,15.00
2019-02-06T14:03:24.239Z,14.50
2019-02-06T14:05:53.673Z,15.43
2019-02-06T14:08:23.124Z,14.47
2019-02-06T14:11:00.208Z,13.73
2019-02-06T14:13:23.987Z,13.07
2019-02-06T14:15:53.577Z,14.47
2019-02-06T14:18:23.052Z,14.47
2019-02-06T14:20:54.106Z,14.17
2019-02-06T14:23:48.619Z,13.60
2019-02-06T14:26:32.769Z,14.33
2019-02-06T14:29:57.409Z,13.10
2019-02-06T14:32:52.837Z,13.37
2019-02-06T14:35:38.432Z,12.83
2019-02-06T14:38:47.215Z,13.93
2019-02-06T14:42:09.991Z,13.60
2019-02-06T14:45:23.035Z,13.50
2019-02-06T14:48:32.497Z,13.77
2019-02-06T14:51:47.649Z,13.93
2019-02-06T14:54:31.047Z,13.03
2019-02-06T14:57:07.933Z,12.70
2019-02-06T15:00:02.745Z,12.33
2019-02-06T15:03:02.931Z,12.77
2019-02-06T15:06:29.957Z,12.53
2019-02-06T15:09:27.546Z,12.07
2019-02-06T15:12:19.966Z,12.33
2019-02-06T15:14:58.320Z,12.60
2019-02-06T15:18:11.692Z,12.03
2019-02-06T15:21:13.451Z,11.77
2019-02-06T15:24:08.790Z,11.97
2019-02-06T15:27:06.886Z,12.67
2019-02-06T15:29:51.989Z,11.33
2019-02-06T15:33:10.385Z,12.10
2019-02-06T15:36:05.317Z,11.53
2019-02-06T15:38:49.741Z,11.63
2019-02-06T15:41:50.439Z,11.73
2019-02-06T15:44:34.985Z,11.77
2019-02-06T15:47:34.487Z,12.23
2019-02-06T15:50:26.739Z,11.43
2019-02-06T15:53:07.574Z,12.30
2019-02-06T15:55:49.102Z,12.10
2019-02-06T15:59:14.590Z,12.77
2019-02-06T16:02:13.270Z,12.60
2019-02-06T16:05:36.033Z,13.37
2019-02-06T16:08:23.175Z,14.07
2019-02-06T16:11:42.359Z,14.20
2019-02-06T16:14:41.437Z,14.43
2019-02-06T16:17:41.631Z,15.40
2019-02-06T16:20:34.307Z,15.17
2019-02-06T16:23:43.223Z,15.90
2019-02-06T16:27:08.674Z,16.83
2019-02-06T16:30:14.507Z,17.40
2019-02-06T16:33:17.092Z,18.87
2019-02-06T16:36:26.428Z,18.50
2019-02-06T16:39:15.550Z,27.27
2019-02-06T16:42:18.565Z,18.47
2019-02-06T16:45:38.433Z,19.67
2019-02-06T16:48:45.995Z,20.37
2019-02-06T16:51:31.801Z,20.47
2019-02-06T16:54:58.266Z,22.07
2019-02-06T16:57:52.062Z,25.17
2019-02-06T17:01:11.938Z,23.43
2019-02-06T17:04:22.649Z,22.70
2019-02-06T17:07:38.279Z,23.00
2019-02-06T17:10:43.261Z,27.60
2019-02-06T17:13:42.219Z,25.00
2019-02-06T17:16:48.275Z,25.03
2019-02-06T17:19:56.813Z,25.20
2019-02-06T17:22:40.155Z,25.83
2019-02-06T17:25:47.503Z,25.13
2019-02-06T17:28:59.756Z,26.47
2019-02-06T17:32:15.083Z,26.63
2019-02-06T17:35:10.539Z,25.83
2019-02-06T17:38:19.324Z,27.80
2019-02-06T17:41:17.216Z,27.33
2019-02-06T17:44:17.830Z,27.50
2019-02-06T17:47:27.161Z,26.83
2019-02-06T17:50:11.624Z,27.00
2019-02-06T17:53:09.593Z,26.83
2019-02-06T17:55:39.480Z,28.43
2019-02-06T17:58:11.156Z,26.80
2019-02-06T18:01:04.649Z,26.27
2019-02-06T18:03:47.344Z,28.30
2019-02-06T18:06:17.218Z,27.27
2019-02-06T18:08:56.314Z,27.27
2019-02-06T18:11:17.784Z,26.47
2019-02-06T18:13:47.780Z,25.63
2019-02-06T18:16:21.469Z,27.13
2019-02-06T18:18:48.573Z,25.87
2019-02-06T18:21:18.579Z,27.03
2019-02-06T18:23:48.006Z,27.93
2019-02-06T18:26:17.438Z,26.50
2019-02-06T18:28:47.200Z,26.90
2019-02-06T18:31:16.672Z,27.67
2019-02-06T18:33:46.188Z,27.40
2019-02-06T18:36:16.264Z,27.27
2019-02-06T18:38:47.019Z,27.23
2019-02-06T18:41:16.506Z,27.27
2019-02-06T18:43:45.968Z,27.73
2019-02-06T18:46:15.862Z,27.13
2019-02-06T18:48:45.376Z,28.03
2019-02-06T18:51:14.971Z,27.90
2019-02-06T18:53:44.629Z,28.63
2019-02-06T18:56:14.183Z,29.63
2019-02-06T18:58:44.152Z,30.20
2019-02-06T19:01:13.568Z,29.30
2019-02-06T19:03:45.568Z,30.90
2019-02-06T19:06:15.484Z,28.50
2019-02-06T19:08:45.138Z,29.67
2019-02-06T19:11:14.644Z,29.87
2019-02-06T19:13:44.122Z,31.00
2019-02-06T19:16:13.622Z,30.97
2019-02-06T19:18:43.397Z,30.67
2019-02-06T19:21:12.870Z,29.30
2019-02-06T19:23:42.298Z,30.20
2019-02-06T19:26:11.793Z,29.87
2019-02-06T19:28:41.204Z,30.27
2019-02-06T19:31:11.019Z,31.17
2019-02-06T19:33:40.750Z,30.23
2019-02-06T19:36:10.256Z,30.77
2019-02-06T19:38:40.118Z,30.10
2019-02-06T19:41:09.561Z,29.60
2019-02-06T19:43:39.038Z,31.33
2019-02-06T19:46:08.910Z,32.10
2019-02-06T19:48:38.382Z,30.27
2019-02-06T19:51:07.962Z,32.27
2019-02-06T19:53:37.430Z,31.70
2019-02-06T19:56:07.600Z,30.97
2019-02-06T19:58:37.424Z,32.77
2019-02-06T20:01:06.928Z,32.30
2019-02-06T20:03:36.805Z,32.20
2019-02-06T20:06:06.346Z,33.00
2019-02-06T20:08:35.772Z,31.67
2019-02-06T20:11:05.460Z,31.80
2019-02-06T20:13:35.502Z,33.13
2019-02-06T20:16:05.310Z,34.57
2019-02-06T20:18:34.883Z,34.67
2019-02-06T20:21:04.412Z,31.93
2019-02-06T20:23:33.839Z,31.87
2019-02-06T20:26:03.414Z,32.40
2019-02-06T20:28:32.875Z,33.67
2019-02-06T20:31:02.718Z,32.70
2019-02-06T20:33:32.280Z,31.07
2019-02-06T20:36:02.122Z,31.63
2019-02-06T20:38:31.703Z,30.70
2019-02-06T20:41:01.286Z,31.23
2019-02-06T20:43:30.835Z,32.27
2019-02-06T20:46:00.874Z,30.93
2019-02-06T20:48:30.304Z,31.70
2019-02-06T20:50:59.793Z,32.30
2019-02-06T20:53:29.442Z,32.93
2019-02-06T20:55:58.944Z,33.47
2019-02-06T20:58:28.766Z,34.23
2019-02-06T21:00:58.442Z,36.10
2019-02-06T21:03:28.020Z,36.00
2019-02-06T21:05:57.544Z,35.23
2019-02-06T21:08:26.988Z,36.50
2019-02-06T21:10:56.434Z,36.07
2019-02-06T21:13:32.891Z,36.57
2019-02-06T21:15:57.008Z,36.43
2019-02-06T21:18:26.757Z,36.30
2019-02-06T21:20:56.203Z,36.03
2019-02-06T21:23:25.612Z,34.87
2019-02-06T21:25:55.086Z,36.40
2019-02-06T21:28:24.511Z,38.00
2019-02-06T21:30:53.976Z,36.97
2019-02-06T21:33:23.729Z,35.83
2019-02-06T21:35:53.178Z,35.97
2019-02-06T21:38:22.903Z,36.03
2019-02-06T21:40:52.586Z,36.50
2019-02-06T21:43:22.089Z,35.77
2019-02-06T21:45:51.516Z,37.43
2019-02-06T21:48:22.345Z,36.50
2019-02-06T21:50:51.851Z,37.40
2019-02-06T21:53:21.324Z,37.53
2019-02-06T21:55:50.736Z,38.30
2019-02-06T21:58:20.236Z,36.93
2019-02-06T22:00:49.772Z,37.67
2019-02-06T22:03:19.430Z,39.74
2019-02-06T22:05:48.907Z,37.53
2019-02-06T22:08:18.401Z,37.80
2019-02-06T22:10:47.854Z,38.53
2019-02-06T22:13:17.279Z,38.60
2019-02-06T22:15:46.786Z,38.97
2019-02-06T22:18:16.189Z,38.17
2019-02-06T22:20:45.683Z,38.97
2019-02-06T22:23:15.112Z,37.77
2019-02-06T22:25:44.628Z,40.20
2019-02-06T22:28:14.070Z,40.10
2019-02-06T22:30:43.504Z,39.23
2019-02-06T22:33:13.014Z,40.33
2019-02-06T22:35:42.783Z,38.37
2019-02-06T22:38:12.279Z,37.67
2019-02-06T22:40:41.703Z,38.40
2019-02-06T22:43:11.140Z,38.83
2019-02-06T22:45:40.624Z,39.27
2019-02-06T22:48:10.100Z,40.03
2019-02-06T22:50:39.550Z,40.50
2019-02-06T22:53:10.040Z,38.73
2019-02-06T22:55:39.494Z,40.33
2019-02-06T22:58:08.912Z,37.70
2019-02-06T23:00:49.651Z,37.80
2019-02-06T23:03:31.391Z,38.80
2019-02-06T23:06:01.166Z,37.63
2019-02-06T23:08:31.273Z,38.03
2019-02-06T23:11:00.908Z,34.77
2019-02-06T23:13:30.402Z,35.40
2019-02-06T23:15:59.792Z,34.00
2019-02-06T23:18:29.244Z,33.30
2019-02-06T23:20:58.690Z,33.77
2019-02-06T23:23:28.122Z,32.20
2019-02-06T23:25:58.044Z,32.47
2019-02-06T23:28:27.505Z,31.40
2019-02-06T23:30:57.077Z,30.63
2019-02-06T23:33:26.473Z,30.57
2019-02-06T23:35:55.907Z,29.93
2019-02-06T23:38:25.373Z,29.30
2019-02-06T23:40:54.874Z,28.57
2019-02-06T23:43:24.314Z,27.23
2019-02-06T23:45:53.760Z,27.30
2019-02-06T23:48:23.332Z,27.47
2019-02-06T23:50:52.799Z,28.47
2019-02-06T23:53:22.285Z,26.87
2019-02-06T23:55:51.729Z,26.77
2019-02-06T23:58:21.188Z,27.23
